Date,TemperatureHighF,TemperatureAvgF,TemperatureLowF,DewpointHighF,DewpointAvgF,DewpointLowF,HumidityHigh,HumidityAvg,HumidityLow,PressureMaxIn,PressureMinIn,WindSpeedMaxMPH,WindSpeedAvgMPH,GustSpeedMaxMPH,PrecipitationSumIn
2013-1-1,51,51,51,44,44,44,78,78,78,30.08,30.08,6,6,6,0.05
2013-1-7,37,37,37,33,32,32,85,84,83,30.06,30.05,8,6,16,0.00
2013-1-8,37,35,34,33,29,24,92,76,60,30.19,30.06,12,3,21,0.11
2013-1-9,47,40,34,33,30,24,80,66,48,30.22,30.14,21,1,16,0.00
2013-1-10,52,45,35,46,35,26,91,68,39,30.17,29.91,12,1,12,0.05
2013-1-11,62,56,50,54,50,46,93,82,61,29.91,29.78,16,2,16,0.09
2013-1-12,60,52,44,50,44,42,94,76,60,30.01,29.78,13,1,13,0.01
2013-1-13,57,50,43,46,43,40,93,77,54,30.20,30.01,12,2,12,0.01
2013-1-14,59,52,48,50,46,43,85,79,67,30.26,30.19,13,4,13,0.00
2013-1-15,61,56,46,52,49,44,95,78,61,30.22,29.89,15,3,27,0.01
2013-1-16,60,54,46,53,47,41,94,78,67,29.89,29.62,32,8,32,1.38
2013-1-17,61,56,46,52,48,42,88,76,60,29.76,29.55,16,5,32,0.07
2013-1-18,58,52,47,51,47,40,92,81,65,29.55,29.42,32,5,26,0.28
2013-1-19,52,49,47,40,40,40,76,72,63,29.81,29.50,12,9,12,0.01
2013-1-20,52,52,52,40,40,40,65,65,65,29.81,29.81,4,4,4,0.01
2013-1-21,52,52,52,40,40,40,65,65,65,29.81,29.81,4,4,4,0.01
2013-1-22,52,52,52,40,40,40,65,65,65,29.81,29.81,4,4,4,0.01
2013-1-23,52,52,52,40,40,40,65,65,65,29.81,29.81,4,4,4,0.01
2013-1-24,52,52,52,40,40,40,65,65,65,29.81,29.81,4,4,4,0.01
2013-1-25,52,52,52,40,40,40,65,65,65,29.81,29.81,4,4,4,0.01
2013-1-26,52,52,52,40,40,40,65,65,65,29.81,29.81,4,4,4,0.01
2013-1-27,52,52,52,40,40,40,65,65,65,29.81,29.81,4,4,4,0.01
2013-1-28,52,52,52,40,40,40,65,65,65,29.81,29.81,4,4,4,0.01
2013-1-29,52,52,52,40,40,40,65,65,65,29.81,29.81,4,4,4,0.01
2013-1-30,52,52,52,40,40,40,65,65,65,29.81,29.81,4,4,4,0.01
2013-1-31,52,52,52,40,40,40,65,65,65,29.81,29.81,4,4,4,0.01
2013-2-1,52,52,52,40,40,40,65,65,65,29.81,29.81,4,4,4,0.01
2013-2-2,52,52,52,40,40,40,65,65,65,29.81,29.81,4,4,4,0.01
2013-2-3,52,52,52,40,40,40,65,65,65,29.81,29.81,4,4,4,0.01
2013-2-4,52,52,52,40,40,40,65,65,65,29.81,29.81,4,4,4,0.01
2013-2-5,52,52,52,40,40,40,65,65,65,29.81,29.81,4,4,4,0.01
2013-2-6,52,52,52,40,40,40,65,65,65,29.81,29.81,4,4,4,0.01
2013-2-7,52,52,52,40,40,40,65,65,65,29.81,29.81,4,4,4,0.01
2013-2-8,52,52,52,40,40,40,65,65,65,29.81,29.81,4,4,4,0.01
2013-2-9,52,52,52,40,40,40,65,65,65,29.81,29.81,4,4,4,0.01
2013-2-10,52,52,52,40,40,40,65,65,65,29.81,29.81,4,4,4,0.01
2013-2-11,52,52,52,40,40,40,65,65,65,29.81,29.81,4,4,4,0.01
2013-2-12,52,52,52,40,40,40,65,65,65,29.81,29.81,4,4,4,0.01
2013-2-13,52,52,52,40,40,40,65,65,65,29.81,29.81,4,4,4,0.01
2013-2-14,52,52,52,40,40,40,65,65,65,29.81,29.81,4,4,4,0.01
2013-2-15,52,52,52,40,40,40,65,65,65,29.81,29.81,4,4,4,0.01
2013-2-16,52,52,52,40,40,40,65,65,65,29.81,29.81,4,4,4,0.01
2013-2-17,52,52,52,40,40,40,65,65,65,29.81,29.81,4,4,4,0.01
2013-2-18,52,52,52,40,40,40,65,65,65,29.81,29.81,4,4,4,0.01
2013-2-19,52,52,52,40,40,40,65,65,65,29.81,29.81,4,4,4,0.01
2013-2-20,52,52,52,40,40,40,65,65,65,29.81,29.81,4,4,4,0.01
2013-2-21,52,52,52,40,40,40,65,65,65,29.81,29.81,4,4,4,0.01
2013-2-22,52,52,52,40,40,40,65,65,65,29.81,29.81,4,4,4,0.01
2013-2-23,52,52,52,40,40,40,65,65,65,29.81,29.81,4,4,4,0.01
2013-2-24,52,52,52,40,40,40,65,65,65,29.81,29.81,4,4,4,0.01
2013-4-26,52,52,52,40,40,40,65,65,65,29.81,29.81,4,4,4,0.00
2013-4-27,52,52,52,40,40,40,65,65,65,29.81,29.81,4,4,4,0.01
2013-4-28,52,52,52,40,40,40,65,65,65,29.81,29.81,4,4,4,0.00
2013-4-29,52,52,52,40,40,40,65,65,65,29.81,29.81,4,4,4,0.01
2013-5-1,52,52,52,40,40,40,65,65,65,29.81,29.81,4,4,4,0.00
2013-5-2,52,52,52,40,40,40,65,65,65,29.81,29.81,4,4,4,0.00
2013-5-3,52,52,52,40,40,40,65,65,65,29.81,29.81,4,4,4,0.01
2013-5-4,52,52,52,40,40,40,65,65,65,29.81,29.81,4,4,4,0.01
2013-5-5,52,52,52,40,40,40,65,65,65,29.81,29.81,4,4,4,0.01
2013-5-6,52,52,52,40,40,40,65,65,65,29.81,29.81,4,4,4,0.00
2013-5-8,52,52,52,40,40,40,65,65,65,29.81,29.81,4,4,4,0.00
2013-5-11,52,52,52,40,40,40,65,65,65,29.81,29.81,4,4,4,0.00
2013-5-12,52,52,52,40,40,40,65,65,65,29.81,29.81,4,4,4,0.00
2013-5-13,52,52,52,40,40,40,65,65,65,29.81,29.81,4,4,4,0.00
2013-5-14,52,52,52,40,40,40,65,65,65,29.81,29.81,4,4,4,0.00
2013-5-16,52,52,52,40,40,40,65,65,65,29.81,29.81,4,4,4,0.01
2013-5-17,52,52,52,40,40,40,65,65,65,29.81,29.81,4,4,4,0.00
2013-5-20,52,52,52,40,40,40,65,65,65,29.81,29.81,4,4,4,0.01
2013-5-21,52,52,52,40,40,40,65,65,65,29.81,29.81,4,4,4,0.00
2013-5-22,52,52,52,40,40,40,65,65,65,29.81,29.81,4,4,4,0.00
2013-5-23,52,52,52,40,40,40,65,65,65,29.81,29.81,4,4,4,0.01
2013-5-24,78,74,52,55,52,40,65,46,41,29.89,29.79,17,7,17,0.01
2013-5-25,79,71,64,56,52,48,60,51,38,29.92,29.85,20,5,20,0.00
2013-5-26,84,74,65,54,51,44,64,46,28,29.92,29.81,16,5,16,0.00
2013-5-27,81,72,64,52,43,35,54,37,22,29.93,29.86,16,4,16,0.00
2013-5-28,72,65,61,53,51,48,74,60,48,29.92,29.89,5,1,5,0.00
2013-5-29,86,76,70,61,55,41,66,48,32,29.89,29.54,26,7,26,0.00
2013-5-30,86,80,75,59,51,45,49,37,25,29.70,29.61,18,7,18,0.00
2013-5-31,81,78,71,52,48,43,45,35,30,29.72,29.65,18,6,18,0.00
2013-6-2,77,71,62,56,51,45,77,50,36,29.81,29.66,13,3,19,0.06
2013-6-3,81,73,63,55,51,47,68,48,32,29.84,29.80,19,4,15,0.00
2013-6-4,82,74,65,57,53,47,73,49,30,29.87,29.78,9,2,19,0.00
2013-6-5,82,75,66,56,52,45,62,46,29,29.91,29.83,19,3,13,0.00
2013-6-6,83,77,73,62,58,53,66,51,37,29.96,29.89,15,6,15,0.00
2013-6-7,83,77,71,61,56,52,69,49,36,29.96,29.81,12,5,12,0.01
2013-6-8,83,74,67,62,58,53,75,58,38,29.85,29.76,16,4,16,0.01
2013-6-9,83,75,66,60,58,55,81,58,40,29.89,29.83,15,3,15,0.00
2013-6-10,88,83,75,62,60,54,60,45,38,29.90,29.79,12,4,12,0.00
2013-6-11,86,77,71,62,56,52,64,48,34,29.65,29.58,16,4,17,0.01
2013-6-12,85,74,61,64,56,52,85,56,34,29.72,29.59,23,3,23,0.45
2013-6-13,75,69,64,60,59,58,86,72,57,29.78,29.71,20,3,20,0.01
2013-6-14,77,73,64,63,60,58,83,65,54,29.89,29.81,16,7,16,0.04
2013-6-15,85,80,71,64,61,56,67,52,39,29.90,29.85,13,3,13,0.04
2013-6-16,92,84,72,68,62,54,78,50,31,29.92,29.89,12,2,12,0.04
2013-6-17,90,86,81,62,58,54,47,39,32,29.94,29.90,18,6,18,0.04
2013-6-18,88,83,78,61,59,56,51,45,34,29.93,29.88,23,8,23,0.00
2013-6-19,88,83,78,60,57,55,51,42,32,29.90,29.83,27,8,27,0.00
2013-6-20,90,84,79,60,55,51,52,38,32,29.92,29.80,31,13,31,0.00
2013-6-21,86,81,76,60,56,52,51,43,37,29.92,29.86,26,10,26,0.00
2013-6-22,90,84,75,56,51,42,50,34,20,29.87,29.80,22,8,22,0.00
2013-6-23,94,90,86,61,59,56,38,35,32,29.80,29.76,17,7,17,0.00
2013-6-24,98,91,82,61,57,51,45,32,24,29.75,29.70,9,4,11,0.00
2013-6-25,95,86,77,60,58,55,54,41,27,29.75,29.70,14,4,14,0.00
2013-6-26,90,84,79,69,66,61,63,56,49,29.83,29.75,19,6,19,0.00
2013-6-27,88,82,76,66,64,60,72,55,41,29.87,29.81,17,4,17,0.00
2013-6-28,86,79,73,68,64,60,74,61,43,29.88,29.83,16,4,16,0.00
2013-6-29,89,84,76,66,58,48,71,41,34,29.88,29.70,14,5,14,0.00
2013-6-30,85,79,73,59,54,49,60,44,32,29.83,29.72,15,5,15,0.00
2013-7-1,85,76,68,62,54,49,68,49,30,29.97,29.83,16,3,16,0.00
2013-7-2,86,77,69,62,57,51,76,52,31,29.98,29.91,16,4,16,0.00
2013-7-3,86,77,71,58,55,51,64,46,36,29.94,29.84,20,4,20,0.00
2013-7-4,86,73,69,57,54,52,60,52,36,29.88,29.84,15,2,13,0.00
2013-7-5,72,71,71,54,53,52,55,52,50,29.86,29.84,0,0,4,0.00
2013-7-6,81,80,78,60,60,59,53,51,49,29.84,29.80,23,6,23,0.00
2013-7-7,86,80,75,64,61,58,65,53,44,29.91,29.80,25,8,25,0.00
2013-7-8,89,82,76,61,58,55,55,44,33,29.94,29.89,20,8,20,0.00
2013-7-9,89,87,84,62,60,58,45,41,36,29.89,29.79,20,10,20,0.00
2013-7-10,88,83,78,63,58,53,55,43,37,29.77,29.69,30,11,30,0.00
2013-7-11,84,78,74,64,58,53,60,50,41,29.79,29.71,15,2,15,0.00
2013-7-12,92,82,74,65,61,56,69,49,32,29.87,29.78,16,4,16,0.00
2013-7-13,88,82,77,64,61,56,59,50,40,29.88,29.82,17,6,17,0.00
2013-7-14,81,78,76,60,58,56,55,51,46,29.87,29.84,14,3,14,0.00
2013-7-15,81,81,81,60,60,60,49,49,49,29.87,29.87,14,14,14,0.00
2013-7-16,86,81,75,60,57,53,55,44,36,29.89,29.82,20,4,20,0.00
2013-7-17,80,75,71,62,59,54,71,58,46,29.94,29.88,24,8,24,0.00
2013-7-18,83,78,73,60,55,51,63,46,33,29.97,29.91,27,10,27,0.00
2013-7-19,84,78,73,57,54,48,53,43,33,29.96,29.84,24,6,24,0.00
2013-7-20,86,80,71,59,54,46,61,42,28,29.84,29.77,23,6,21,0.00
2013-7-21,91,82,72,58,55,50,54,40,31,29.84,29.77,21,6,21,0.00
2013-7-22,83,77,73,65,59,52,74,55,39,29.86,29.80,25,7,25,0.00
2013-7-23,86,78,72,62,54,45,62,45,27,29.85,29.80,20,6,21,0.00
2013-7-24,92,83,70,54,51,48,53,34,23,29.87,29.82,22,5,22,0.00
2013-7-25,97,85,72,63,55,48,56,38,21,29.89,29.81,13,2,19,0.00
2013-7-26,94,86,74,63,57,51,61,39,26,29.85,29.77,23,3,23,0.00
2013-7-27,88,81,78,59,55,52,48,41,31,29.83,29.79,14,2,14,0.00
2013-7-28,90,84,78,60,57,54,53,40,33,29.96,29.86,12,4,19,0.00
2013-7-29,92,86,78,58,55,50,50,36,24,29.96,29.88,21,8,21,0.00
2013-7-30,99,88,76,66,60,52,55,40,28,29.88,29.70,15,2,15,0.00
2013-7-31,94,86,79,66,63,58,62,46,36,29.71,29.67,21,5,21,0.00
2013-8-1,86,84,81,67,60,57,63,45,40,29.86,29.76,24,13,24,0.00
2013-8-2,84,84,83,62,61,60,48,46,45,29.92,29.91,24,17,24,0.00
2013-8-3,82,82,81,56,55,53,41,40,36,29.89,29.86,6,2,17,0.00
2013-8-4,82,81,80,57,56,56,45,43,42,29.86,29.84,6,4,14,0.00
2013-8-5,84,84,84,50,50,49,31,31,30,29.87,29.87,13,11,15,0.00
2013-8-6,85,82,80,58,54,48,48,38,29,29.87,29.83,29,16,29,0.00
2013-8-7,86,79,77,57,55,52,47,43,31,29.87,29.82,26,8,26,0.00
2013-8-8,90,86,82,58,54,49,43,34,25,29.92,29.87,26,10,26,0.00
2013-8-9,90,84,78,62,56,52,52,40,27,29.89,29.76,22,9,22,0.00
2013-8-10,93,83,74,70,61,54,71,49,29,29.76,29.59,16,4,16,0.00
2013-8-11,87,82,77,68,59,49,72,48,28,29.74,29.62,22,8,22,0.00
2013-8-16,86,82,76,66,65,64,69,56,49,29.85,29.78,20,6,31,0.00
2013-8-17,86,81,75,66,64,61,71,56,46,29.87,29.80,16,6,26,0.00
2013-8-18,87,80,77,62,55,50,54,42,33,29.93,29.86,12,3,23,0.00
2013-8-19,89,82,76,62,57,53,48,43,33,29.90,29.86,20,7,20,0.00
2013-8-26,92,81,76,64,62,60,63,53,39,29.84,29.81,2,0,6,0.00
2013-8-27,77,77,76,63,62,61,63,61,59,29.82,29.81,0,0,3,0.00
2013-8-28,99,92,84,62,60,57,45,34,26,29.80,29.75,16,6,16,0.00
2013-8-29,95,86,79,66,62,59,61,47,30,29.85,29.78,15,4,15,0.00
2013-8-30,93,83,78,68,62,57,67,50,34,29.86,29.79,21,4,21,0.00
2013-8-31,84,78,74,64,57,52,63,49,39,29.95,29.86,12,3,18,0.00
2013-9-1,84,78,72,62,54,46,71,45,34,30.02,29.94,20,4,20,0.00
2013-9-2,86,78,71,55,48,40,51,36,26,30.02,29.95,16,5,16,0.00
2013-9-13,83,79,75,67,61,58,58,53,50,29.90,29.85,6,2,15,0.00
2013-9-14,85,76,69,61,57,46,75,53,26,29.97,29.89,10,2,18,0.00
2013-9-15,85,77,68,61,51,38,74,44,20,29.95,29.84,16,2,16,0.00
2013-9-16,81,75,68,65,60,53,76,60,43,29.85,29.59,14,3,14,0.00
2013-9-17,83,76,67,61,60,57,77,59,42,29.68,29.60,16,4,16,0.00
2013-9-26,70,70,68,62,62,61,78,76,74,29.84,29.82,3,0,5,0.00
2013-9-27,86,75,67,64,59,52,83,61,33,29.88,29.81,7,1,14,0.00
2013-9-28,86,76,65,63,60,51,84,59,30,29.90,29.84,6,1,12,0.00
2013-9-29,85,75,66,64,62,55,85,64,44,29.89,29.82,12,1,12,0.00
2013-9-30,88,76,67,68,63,58,88,67,41,29.85,29.60,14,2,14,0.00
2013-10-1,77,71,65,69,65,62,92,83,65,29.62,29.52,22,4,22,0.39
2013-11-6,60,60,59,58,57,57,93,92,92,29.65,29.61,4,0,4,0.80
2013-11-7,67,63,57,59,48,35,93,60,33,30.08,29.65,24,7,24,0.01
2013-11-8,75,64,54,54,50,41,85,62,37,30.13,30.06,9,2,9,0.00
2013-11-9,75,64,54,58,53,50,91,69,44,30.08,29.98,9,1,9,0.00
2013-11-10,72,64,56,58,56,53,92,78,60,29.98,29.85,9,2,8,0.00
2013-11-11,71,66,59,64,61,56,95,84,69,29.96,29.82,23,6,23,1.00
2013-11-12,68,65,61,63,62,58,94,89,80,30.04,29.94,20,4,20,0.06
2013-11-13,69,62,59,58,56,54,89,80,58,30.04,29.93,13,2,13,0.07
2013-11-14,63,60,57,55,54,53,87,82,72,29.94,29.83,14,4,14,0.01
2013-11-15,62,58,55,54,52,51,87,81,70,30.10,29.87,18,6,18,0.00
2013-11-16,59,57,54,53,49,45,85,77,69,30.16,30.08,21,7,23,0.00
2013-11-17,59,56,52,48,45,43,78,67,57,30.17,30.08,21,7,22,0.00
2013-11-18,60,55,50,47,45,43,79,69,59,30.13,30.07,20,5,20,0.00
2013-11-19,65,58,52,53,49,45,85,73,54,30.12,30.00,9,2,9,0.00
2013-11-20,69,63,57,63,58,53,94,85,76,30.00,29.84,18,4,18,0.51
2013-11-21,70,62,55,59,56,52,94,80,62,29.87,29.73,20,4,20,0.51
2013-11-22,67,59,55,56,53,50,95,82,56,29.78,29.68,9,1,13,0.18
2013-11-23,68,60,52,58,53,50,95,80,65,29.78,29.71,16,3,16,0.01
2013-11-24,65,59,55,59,54,50,94,86,72,29.76,29.65,27,3,27,1.17
2013-11-25,66,57,51,55,51,47,96,80,52,29.71,29.67,6,0,13,0.01
2013-11-26,65,56,52,55,51,48,93,85,58,29.76,29.67,8,0,13,0.02
2013-11-27,63,55,49,50,43,36,94,67,38,30.19,29.75,15,2,15,0.01
2013-11-28,56,51,45,44,41,37,86,70,49,30.29,30.19,12,3,12,0.00
2013-11-29,62,51,41,46,42,38,91,74,50,30.21,30.08,7,1,7,0.00
2013-11-30,55,53,49,51,46,42,89,79,68,30.13,30.02,18,5,18,0.09
2013-12-1,62,58,53,59,55,48,93,88,79,30.05,29.90,29,9,29,0.15
2013-12-2,62,59,56,58,56,52,94,90,83,30.08,29.93,20,6,20,1.04
2013-12-3,57,49,43,53,42,37,88,79,68,30.18,30.05,40,15,40,0.06
2013-12-4,48,45,42,40,38,34,89,77,65,30.14,30.05,25,11,25,0.13
2013-12-5,45,45,45,34,34,34,66,66,66,30.07,30.07,4,4,4,0.13
2013-12-6,45,45,45,34,34,34,66,66,66,30.07,30.07,4,4,4,0.13
2013-12-7,59,50,45,51,41,28,92,72,48,30.21,29.84,20,4,20,0.13
2013-12-8,51,46,41,35,28,23,80,51,34,30.40,30.21,20,4,20,0.00
2013-12-9,57,48,37,42,33,23,85,61,28,30.41,30.22,10,2,10,0.00
2013-12-10,57,50,44,44,39,32,85,69,46,30.36,30.09,30,7,30,0.04
2013-12-11,44,41,39,32,25,20,64,53,38,30.51,30.36,33,10,33,0.00
2013-12-12,50,44,36,37,30,19,74,61,31,30.45,30.22,16,4,16,0.00
2013-12-13,48,46,42,42,40,37,89,82,73,30.25,30.14,12,3,13,0.00
2013-12-14,56,45,39,46,40,36,94,85,65,30.36,30.19,2,0,2,0.01
2013-12-15,61,52,45,50,47,42,93,82,60,30.36,30.29,8,1,8,0.00
2013-12-16,54,51,48,49,45,39,93,81,68,30.39,30.29,25,5,25,0.00
2013-12-17,48,48,45,42,39,36,79,73,63,30.42,30.34,17,8,21,0.00
2013-12-18,48,46,43,41,39,37,82,77,70,30.40,30.22,21,5,21,0.00
2013-12-19,52,47,44,42,40,37,89,74,57,30.29,30.21,16,3,16,0.01
2013-12-20,57,47,39,42,39,35,89,74,49,30.46,30.28,12,1,12,0.00
2013-12-21,59,48,40,46,42,37,95,80,55,30.51,30.44,6,0,7,0.01
2013-12-22,60,49,40,42,38,32,89,69,36,30.50,30.38,15,2,15,0.01
2013-12-23,59,48,40,45,41,36,92,78,50,30.38,30.28,12,1,12,0.00
2013-12-24,53,50,46,48,45,42,88,82,73,30.31,30.17,15,2,21,0.01
2013-12-25,61,54,50,53,50,47,92,85,68,30.21,30.05,14,3,15,0.11
2013-12-26,62,56,52,54,52,49,92,84,71,30.06,29.85,18,3,18,0.02
2013-12-27,60,56,52,53,52,50,94,87,73,29.85,29.77,28,6,28,1.30
2013-12-28,58,54,51,51,49,44,94,85,69,29.92,29.79,18,5,18,0.06
2013-12-29,61,54,49,47,45,42,84,72,53,30.00,29.90,17,3,17,0.00
2013-12-30,63,53,45,46,43,41,92,70,47,30.11,30.05,7,1,15,0.00
2013-12-31,53,49,48,46,42,40,81,76,71,30.18,30.10,17,6,17,0.00
2014-1-1,49,48,46,45,42,40,89,82,73,30.17,30.07,7,2,15,0.26
2014-1-2,54,50,47,46,44,42,88,80,72,30.12,30.05,15,5,16,0.03